Time;durP1;ratioP1;P1;durP2;ratioP2;P2;SDS_P1;SDS_P2;PMS_P1;PMS_P2;Temp;Humidity;BMP_temperature;BMP_pressure;BME280_temperature;BME280_humidity;BME280_pressure;Samples;Min_cycle;Max_cycle;Signal;HPM_P1;HPM_P2
2023/07/31 00:01:53;;;;;;;7.50;3.35;;;21.60;60.90;;;;;;5094748;28;20194;-55
2023/07/31 00:04:21;;;;;;;8.35;3.30;;;21.60;60.90;;;;;;5094591;28;20242;-56
2023/07/31 00:06:48;;;;;;;7.85;3.63;;;21.60;61.00;;;;;;5094566;28;20194;-56
2023/07/31 00:09:19;;;;;;;6.70;3.25;;;21.60;61.00;;;;;;5094329;28;20222;-56
2023/07/31 00:11:47;;;;;;;8.20;3.47;;;21.60;61.00;;;;;;5094006;28;20205;-55
2023/07/31 00:14:14;;;;;;;8.40;3.50;;;21.60;61.00;;;;;;5094462;28;20210;-57
2023/07/31 00:16:42;;;;;;;7.43;3.60;;;21.60;61.00;;;;;;5094334;28;20190;-55
2023/07/31 00:19:09;;;;;;;8.85;3.75;;;21.60;61.00;;;;;;5094138;28;20214;-55
2023/07/31 00:21:37;;;;;;;8.73;3.50;;;21.60;61.10;;;;;;5094317;28;20244;-56
2023/07/31 00:24:04;;;;;;;7.53;3.40;;;21.60;61.10;;;;;;5093911;28;20316;-54
2023/07/31 00:26:33;;;;;;;9.63;3.20;;;21.60;61.10;;;;;;5094129;28;20197;-53
2023/07/31 00:29:00;;;;;;;8.95;3.28;;;21.60;61.10;;;;;;5093694;28;20662;-53
2023/07/31 00:31:28;;;;;;;8.25;3.03;;;21.50;61.00;;;;;;5093885;28;20309;-55
2023/07/31 00:33:55;;;;;;;7.65;3.25;;;21.60;61.10;;;;;;5094276;28;20218;-57
2023/07/31 00:36:23;;;;;;;5.72;2.72;;;21.60;61.10;;;;;;5094036;28;20190;-56
2023/07/31 00:38:50;;;;;;;7.80;3.50;;;21.60;61.20;;;;;;5093739;28;20225;-55
2023/07/31 00:41:18;;;;;;;7.13;2.90;;;21.60;61.20;;;;;;5093980;28;20305;-54
2023/07/31 00:43:46;;;;;;;5.75;3.60;;;21.60;61.30;;;;;;5092965;28;20824;-54
2023/07/31 00:46:14;;;;;;;8.35;3.38;;;21.60;61.30;;;;;;5093534;28;20186;-56
2023/07/31 00:48:42;;;;;;;7.15;2.95;;;21.60;61.30;;;;;;5093785;28;20221;-56
2023/07/31 00:51:10;;;;;;;9.63;3.65;;;21.60;61.30;;;;;;5093780;28;20193;-56
2023/07/31 00:53:38;;;;;;;7.70;3.20;;;21.60;61.40;;;;;;5093742;28;20244;-56
2023/07/31 00:56:05;;;;;;;6.70;3.33;;;21.60;61.40;;;;;;5093643;28;20188;-53
2023/07/31 00:58:37;;;;;;;8.25;3.20;;;21.50;61.30;;;;;;5092989;28;20198;-56
2023/07/31 01:01:06;;;;;;;6.85;3.40;;;21.50;61.30;;;;;;5093219;28;20186;-56
2023/07/31 01:03:34;;;;;;;7.15;3.25;;;21.50;61.90;;;;;;5093376;28;20214;-56
2023/07/31 01:06:13;;;;;;;5.68;3.30;;;21.60;61.50;;;;;;5093476;28;20190;-51
2023/07/31 01:08:45;;;;;;;6.78;3.38;;;21.60;61.50;;;;;;5093020;28;20218;-58
2023/07/31 01:11:20;;;;;;;10.35;3.55;;;21.50;61.40;;;;;;5093099;28;20273;-58
2023/07/31 01:13:48;;;;;;;8.52;3.72;;;21.60;61.60;;;;;;5093307;28;20300;-58
2023/07/31 01:16:17;;;;;;;6.63;3.38;;;21.50;61.50;;;;;;5092959;28;20237;-57
2023/07/31 01:18:44;;;;;;;6.75;3.53;;;21.60;61.60;;;;;;5093195;28;20218;-59
2023/07/31 01:21:24;;;;;;;7.03;3.20;;;21.50;61.50;;;;;;5093210;28;20182;-58
2023/07/31 01:24:15;;;;;;;6.90;3.13;;;21.60;61.70;;;;;;5093041;28;20276;-58
2023/07/31 01:26:50;;;;;;;6.30;3.80;;;21.50;61.70;;;;;;5092204;28;20194;-57
2023/07/31 01:29:25;;;;;;;8.25;3.55;;;21.50;61.70;;;;;;5093068;28;20217;-57
2023/07/31 01:31:56;;;;;;;6.63;2.97;;;21.60;61.80;;;;;;5092564;28;20828;-57
2023/07/31 01:34:24;;;;;;;8.00;3.65;;;21.50;61.80;;;;;;5093516;28;20221;-56
2023/07/31 01:36:51;;;;;;;7.30;3.03;;;21.60;61.90;;;;;;5093107;28;20194;-55
2023/07/31 01:39:28;;;;;;;9.77;3.63;;;21.50;61.80;;;;;;5093116;28;20218;-55
2023/07/31 01:41:57;;;;;;;9.00;3.65;;;21.50;61.80;;;;;;5092394;28;20209;-56
2023/07/31 01:44:24;;;;;;;8.65;3.70;;;21.50;61.80;;;;;;5092834;28;20234;-56
2023/07/31 01:46:51;;;;;;;5.70;3.00;;;21.60;61.90;;;;;;5092731;28;20239;-55
2023/07/31 01:49:19;;;;;;;5.75;3.15;;;21.50;61.80;;;;;;5092826;28;20221;-56
2023/07/31 01:51:46;;;;;;;6.72;3.55;;;21.50;61.80;;;;;;5092777;28;20247;-57
2023/07/31 01:54:14;;;;;;;8.23;3.15;;;21.50;61.80;;;;;;5092716;28;20221;-55
2023/07/31 01:56:41;;;;;;;7.68;3.33;;;21.50;61.80;;;;;;5092046;28;20193;-57
2023/07/31 01:59:10;;;;;;;8.27;3.35;;;21.50;61.80;;;;;;5092634;28;20218;-57
2023/07/31 02:01:37;;;;;;;8.38;3.58;;;21.60;61.90;;;;;;5092640;28;20182;-57
2023/07/31 02:04:05;;;;;;;7.30;3.40;;;21.50;61.80;;;;;;5092540;28;20233;-55
2023/07/31 02:06:32;;;;;;;7.63;3.45;;;21.50;61.80;;;;;;5092558;28;20194;-57
2023/07/31 02:09:00;;;;;;;6.65;3.50;;;21.50;61.80;;;;;;5092486;28;20224;-55
2023/07/31 02:11:27;;;;;;;6.18;3.30;;;21.50;61.80;;;;;;5091699;28;20217;-56
2023/07/31 02:13:55;;;;;;;7.15;3.75;;;21.50;61.80;;;;;;5092464;28;20271;-56
2023/07/31 02:16:24;;;;;;;6.72;3.30;;;21.50;61.80;;;;;;5092470;28;20182;-54
2023/07/31 02:18:51;;;;;;;6.78;3.42;;;21.50;61.80;;;;;;5092379;28;20186;-56
2023/07/31 02:21:18;;;;;;;8.38;3.28;;;21.50;61.80;;;;;;5094746;28;20194;-56
2023/07/31 02:23:49;;;;;;;5.82;3.15;;;21.50;61.80;;;;;;5096176;28;20691;-56
2023/07/31 02:26:17;;;;;;;9.98;3.75;;;21.50;61.80;;;;;;5095994;28;20198;-57
2023/07/31 02:28:44;;;;;;;6.45;3.85;;;21.50;61.80;;;;;;5096484;28;20189;-56
2023/07/31 02:31:11;;;;;;;9.00;3.10;;;21.50;61.80;;;;;;5096098;28;20218;-55
2023/07/31 02:33:40;;;;;;;6.78;2.97;;;21.50;61.80;;;;;;5096354;28;20213;-56
2023/07/31 02:36:07;;;;;;;7.47;3.40;;;21.50;61.90;;;;;;5096725;28;20194;-57
2023/07/31 02:38:35;;;;;;;7.40;3.28;;;21.50;62.60;;;;;;5096421;28;20186;-54
2023/07/31 02:41:03;;;;;;;5.80;2.90;;;21.50;61.80;;;;;;5095767;28;20193;-56
2023/07/31 02:43:30;;;;;;;8.10;3.35;;;21.50;61.80;;;;;;5096234;28;20210;-54
2023/07/31 02:45:58;;;;;;;6.05;2.95;;;21.50;61.80;;;;;;5096410;28;20214;-56
2023/07/31 02:48:25;;;;;;;8.38;3.75;;;21.50;61.90;;;;;;5096161;28;20236;-56
2023/07/31 02:50:54;;;;;;;7.72;3.40;;;21.50;61.90;;;;;;5096026;28;20218;-56
2023/07/31 02:53:23;;;;;;;5.78;3.20;;;21.50;61.90;;;;;;5096124;28;20186;-56
2023/07/31 02:55:50;;;;;;;8.13;3.40;;;21.50;62.00;;;;;;5095364;28;20222;-54
2023/07/31 02:58:18;;;;;;;7.75;3.58;;;21.50;61.90;;;;;;5096028;28;20190;-54
2023/07/31 03:00:46;;;;;;;10.32;3.58;;;21.50;62.00;;;;;;5096091;28;20271;-56
2023/07/31 03:03:13;;;;;;;7.43;3.33;;;21.50;62.00;;;;;;5095503;28;20201;-56
2023/07/31 03:05:40;;;;;;;6.82;3.50;;;21.50;62.10;;;;;;5095999;28;20279;-56
2023/07/31 03:08:09;;;;;;;8.68;3.47;;;21.50;62.10;;;;;;5095469;28;20194;-57
2023/07/31 03:10:37;;;;;;;8.45;3.60;;;21.50;62.10;;;;;;5095339;28;20222;-53
2023/07/31 03:13:04;;;;;;;6.95;3.10;;;21.50;62.10;;;;;;5095760;28;20203;-54
2023/07/31 03:15:32;;;;;;;6.95;2.90;;;21.50;62.20;;;;;;5095731;28;20214;-56
2023/07/31 03:17:59;;;;;;;5.28;2.90;;;21.50;62.20;;;;;;5095616;28;20197;-56
2023/07/31 03:20:27;;;;;;;11.80;3.78;;;21.50;62.30;;;;;;5095679;28;20210;-55
2023/07/31 03:22:54;;;;;;;8.18;3.85;;;21.50;62.30;;;;;;5095578;28;20190;-56
2023/07/31 03:25:23;;;;;;;8.48;3.60;;;21.50;62.40;;;;;;5094994;28;20238;-55
2023/07/31 03:27:50;;;;;;;8.43;3.22;;;21.50;62.30;;;;;;5095198;28;20186;-58
2023/07/31 03:30:18;;;;;;;5.72;3.40;;;21.50;62.40;;;;;;5095513;28;20235;-57
2023/07/31 03:32:45;;;;;;;10.55;3.72;;;21.50;62.40;;;;;;5094817;28;20230;-58
2023/07/31 03:35:12;;;;;;;6.65;3.20;;;21.50;62.50;;;;;;5095398;28;20301;-58
2023/07/31 03:37:40;;;;;;;9.02;3.80;;;21.50;62.50;;;;;;5095216;28;20194;-57
2023/07/31 03:40:08;;;;;;;8.90;3.40;;;21.50;62.50;;;;;;5095247;28;20275;-58
2023/07/31 03:42:37;;;;;;;9.52;3.33;;;21.50;62.60;;;;;;5094689;28;20268;-58
2023/07/31 03:45:06;;;;;;;9.57;3.83;;;21.50;62.50;;;;;;5095057;28;20242;-58
2023/07/31 03:47:33;;;;;;;6.75;3.33;;;21.50;62.60;;;;;;5094757;28;20273;-55
2023/07/31 03:50:01;;;;;;;6.88;3.25;;;21.50;62.60;;;;;;5095073;28;20218;-58
2023/07/31 03:52:28;;;;;;;6.80;2.85;;;21.50;62.60;;;;;;5094989;28;20225;-58
2023/07/31 03:55:14;;;;;;;8.70;3.67;;;21.50;62.70;;;;;;5094877;28;20224;-54
2023/07/31 03:57:43;;;;;;;6.65;3.45;;;21.50;62.70;;;;;;5094818;28;20239;-55
2023/07/31 04:00:12;;;;;;;6.18;3.17;;;21.50;62.70;;;;;;5094954;28;20225;-57
2023/07/31 04:02:39;;;;;;;7.07;3.08;;;21.50;62.70;;;;;;5094768;28;20194;-60
2023/07/31 04:05:09;;;;;;;7.18;3.10;;;21.50;62.80;;;;;;5094342;28;20233;-57
2023/07/31 04:07:36;;;;;;;7.00;3.22;;;21.50;62.80;;;;;;5094733;28;20194;-56
2023/07/31 04:10:05;;;;;;;7.43;3.58;;;21.50;62.80;;;;;;5094551;28;20226;-57
2023/07/31 04:12:32;;;;;;;8.43;3.47;;;21.50;62.90;;;;;;5094017;28;20186;-56
2023/07/31 04:15:01;;;;;;;6.60;2.85;;;21.50;62.90;;;;;;5094286;28;20230;-54
2023/07/31 04:17:29;;;;;;;11.45;3.75;;;21.50;63.00;;;;;;5094493;28;20190;-57
2023/07/31 04:19:59;;;;;;;9.55;3.33;;;21.50;63.00;;;;;;5094470;28;20217;-58
2023/07/31 04:22:27;;;;;;;8.98;3.15;;;21.50;63.10;;;;;;5094059;28;20190;-56
2023/07/31 04:24:54;;;;;;;7.70;3.35;;;21.50;63.00;;;;;;5094231;28;20236;-57
2023/07/31 04:27:22;;;;;;;7.63;3.25;;;21.50;63.10;;;;;;5093873;28;20271;-56
2023/07/31 04:29:49;;;;;;;5.88;2.90;;;21.50;63.10;;;;;;5094343;28;20221;-57
2023/07/31 04:32:20;;;;;;;8.73;3.03;;;21.50;63.10;;;;;;5093994;28;20245;-57
2023/07/31 04:34:47;;;;;;;7.32;3.03;;;21.50;63.10;;;;;;5094110;28;20308;-57
2023/07/31 04:37:14;;;;;;;8.18;3.28;;;21.50;63.20;;;;;;5094039;28;20183;-58
2023/07/31 04:39:41;;;;;;;6.78;3.22;;;21.50;63.20;;;;;;5093990;28;20218;-57
2023/07/31 04:42:09;;;;;;;9.93;3.60;;;21.50;63.30;;;;;;5093432;28;20197;-58
2023/07/31 04:44:37;;;;;;;5.72;2.78;;;21.50;63.30;;;;;;5092914;28;20317;-58
2023/07/31 04:47:04;;;;;;;5.50;3.22;;;21.50;63.30;;;;;;5093904;28;20186;-58
2023/07/31 04:49:35;;;;;;;5.90;3.28;;;21.50;63.30;;;;;;5093864;28;20295;-57
2023/07/31 04:52:03;;;;;;;4.60;2.63;;;21.50;63.30;;;;;;5093782;28;20190;-58
2023/07/31 04:54:30;;;;;;;7.35;3.13;;;21.50;63.40;;;;;;5093789;28;20301;-56
2023/07/31 04:56:58;;;;;;;5.15;3.20;;;21.50;63.40;;;;;;5093085;28;20194;-59
2023/07/31 04:59:25;;;;;;;5.10;2.67;;;21.50;63.50;;;;;;5093581;28;20210;-55
2023/07/31 05:01:53;;;;;;;6.30;2.83;;;21.50;63.40;;;;;;5093201;28;20197;-58
2023/07/31 05:04:21;;;;;;;7.47;3.38;;;21.50;63.50;;;;;;5093409;28;20234;-58
2023/07/31 05:06:50;;;;;;;8.35;3.22;;;21.50;63.50;;;;;;5093503;28;20187;-56
2023/07/31 05:09:28;;;;;;;8.35;2.83;;;21.50;63.50;;;;;;5093459;28;20225;-57
2023/07/31 05:11:55;;;;;;;7.25;2.92;;;21.50;63.60;;;;;;5024523;28;20201;-55
2023/07/31 05:14:23;;;;;;;6.47;3.33;;;21.50;63.60;;;;;;5093385;28;20214;-57
2023/07/31 05:16:51;;;;;;;6.60;2.80;;;21.50;63.60;;;;;;5093380;28;20198;-57
2023/07/31 05:19:18;;;;;;;7.82;2.92;;;21.50;63.80;;;;;;5093268;28;20221;-57
2023/07/31 05:21:46;;;;;;;5.03;2.72;;;21.50;63.70;;;;;;5093299;28;20195;-56
2023/07/31 05:24:15;;;;;;;7.57;3.40;;;21.50;63.80;;;;;;5093058;28;20214;-56
2023/07/31 05:26:42;;;;;;;8.63;2.80;;;21.50;63.80;;;;;;5092592;28;20182;-56
2023/07/31 05:29:09;;;;;;;4.05;2.67;;;21.50;63.80;;;;;;5093087;28;20186;-57
2023/07/31 05:31:38;;;;;;;8.45;2.90;;;21.40;63.60;;;;;;5092800;28;20267;-57
2023/07/31 05:34:05;;;;;;;8.45;2.97;;;21.50;63.80;;;;;;5093175;28;20202;-56
2023/07/31 05:36:33;;;;;;;8.02;2.80;;;21.50;63.80;;;;;;5092966;28;20186;-58
2023/07/31 05:39:06;;;;;;;7.32;3.00;;;21.50;63.80;;;;;;5092913;28;20206;-57
2023/07/31 05:41:34;;;;;;;7.15;3.08;;;21.50;63.80;;;;;;5092442;28;20619;-53
2023/07/31 05:44:02;;;;;;;5.95;2.90;;;21.50;63.80;;;;;;5092761;28;20186;-55
2023/07/31 05:46:31;;;;;;;6.07;2.47;;;21.50;63.90;;;;;;5092857;28;20240;-50
2023/07/31 05:49:00;;;;;;;6.40;2.88;;;21.50;63.90;;;;;;5092568;28;20660;-57
2023/07/31 05:51:28;;;;;;;6.70;2.72;;;21.50;63.90;;;;;;5092821;28;20190;-56
2023/07/31 05:53:56;;;;;;;6.55;2.83;;;21.50;63.90;;;;;;5092757;28;20186;-57
2023/07/31 05:56:23;;;;;;;5.53;2.80;;;21.50;63.90;;;;;;5091927;28;20222;-56
2023/07/31 05:58:52;;;;;;;4.50;2.40;;;21.40;63.90;;;;;;5092672;28;20190;-57
2023/07/31 06:01:21;;;;;;;7.93;2.92;;;21.50;64.00;;;;;;5092825;28;20218;-58
2023/07/31 06:03:48;;;;;;;6.47;2.60;;;21.50;64.00;;;;;;5092401;28;20186;-55
2023/07/31 06:06:16;;;;;;;6.80;2.65;;;21.50;64.10;;;;;;5092684;28;20240;-56
2023/07/31 06:08:43;;;;;;;5.70;2.80;;;21.50;64.10;;;;;;5092555;28;20186;-57
2023/07/31 06:11:15;;;;;;;3.88;2.35;;;21.50;64.10;;;;;;5091768;28;20267;-56
2023/07/31 06:13:44;;;;;;;7.90;3.30;;;21.50;64.10;;;;;;5092174;28;20193;-58
2023/07/31 06:16:13;;;;;;;5.53;2.40;;;21.50;64.20;;;;;;5092232;28;20222;-56
2023/07/31 06:18:41;;;;;;;4.22;2.55;;;21.40;64.20;;;;;;5092417;28;20251;-58
2023/07/31 06:21:08;;;;;;;4.60;2.63;;;21.50;64.20;;;;;;5092324;28;20218;-56
2023/07/31 06:23:36;;;;;;;6.65;2.50;;;21.50;64.30;;;;;;5092101;28;20247;-57
2023/07/31 06:26:03;;;;;;;5.38;2.63;;;21.40;64.20;;;;;;5091834;28;20312;-57
2023/07/31 06:28:31;;;;;;;3.78;2.40;;;21.50;64.30;;;;;;5092369;28;20195;-57
2023/07/31 06:30:58;;;;;;;5.75;2.83;;;21.50;64.30;;;;;;5091975;28;20221;-54
2023/07/31 06:33:27;;;;;;;4.43;2.63;;;21.50;64.40;;;;;;5092265;28;20197;-57
2023/07/31 06:35:55;;;;;;;4.90;2.33;;;21.50;64.30;;;;;;5092370;28;20214;-59
2023/07/31 06:38:25;;;;;;;3.83;2.13;;;21.50;64.40;;;;;;5091929;28;20194;-56
2023/07/31 06:40:53;;;;;;;5.35;2.50;;;21.40;64.30;;;;;;5091842;28;20267;-54
2023/07/31 06:43:21;;;;;;;4.97;2.45;;;21.50;64.40;;;;;;5092199;28;20186;-56
2023/07/31 06:45:51;;;;;;;5.43;2.25;;;21.50;64.60;;;;;;5091904;28;20230;-58
2023/07/31 06:48:19;;;;;;;5.38;2.75;;;21.50;64.60;;;;;;5091856;28;20769;-58
2023/07/31 06:50:48;;;;;;;3.92;2.20;;;21.40;64.40;;;;;;5092303;28;20251;-56
2023/07/31 06:53:15;;;;;;;3.65;2.08;;;21.50;64.60;;;;;;5092131;28;20191;-57
2023/07/31 06:55:43;;;;;;;5.30;2.40;;;21.50;64.60;;;;;;5091587;28;20218;-56
2023/07/31 06:58:10;;;;;;;3.80;2.35;;;21.50;64.60;;;;;;5092048;28;20197;-58
2023/07/31 07:00:38;;;;;;;4.65;2.67;;;21.50;64.50;;;;;;5091709;28;20304;-57
2023/07/31 07:03:05;;;;;;;5.60;2.80;;;21.60;64.70;;;;;;5088724;28;20189;-57
2023/07/31 07:08:22;;;;;;;5.68;2.72;;;21.70;65.00;;;;;;5092537;27;20201;-58
2023/07/31 07:10:54;;;;;;;4.97;2.28;;;21.70;64.80;;;;;;5108553;28;20217;-59
2023/07/31 07:13:31;;;;;;;8.65;2.35;;;21.80;64.90;;;;;;5114192;28;20308;-59
2023/07/31 07:16:15;;;;;;;;;;;;;;;;;;;;;
2023/07/31 07:18:47;;;;;;;5.68;2.40;;;21.80;64.90;;;;;;4981050;28;20211;-57
2023/07/31 07:24:32;;;;;;;6.18;2.20;;;21.80;64.90;;;;;;5090417;28;20206;-57
2023/07/31 07:27:08;;;;;;;4.60;2.58;;;21.90;65.00;;;;;;5092561;27;20201;-57
2023/07/31 07:29:55;;;;;;;3.90;2.53;;;21.90;65.00;;;;;;5110555;27;20276;-55
2023/07/31 07:32:23;;;;;;;3.63;2.03;;;21.90;65.00;;;;;;5083739;28;20236;-56
2023/07/31 07:34:56;;;;;;;3.80;2.10;;;22.00;65.10;;;;;;5110712;27;20224;-60
2023/07/31 07:37:26;;;;;;;5.07;2.25;;;22.00;65.20;;;;;;5111273;27;20188;-60
2023/07/31 07:39:55;;;;;;;3.50;2.17;;;22.00;65.00;;;;;;5092282;27;20360;-60
2023/07/31 07:42:22;;;;;;;2.80;1.95;;;22.00;65.10;;;;;;5117176;27;20185;-60
2023/07/31 07:44:50;;;;;;;7.53;2.35;;;22.00;65.10;;;;;;5116938;27;20213;-60
2023/07/31 07:47:17;;;;;;;4.55;2.08;;;22.00;65.10;;;;;;5115967;27;20181;-58
2023/07/31 07:49:51;;;;;;;3.20;2.08;;;22.10;65.20;;;;;;5117654;27;20247;-58
2023/07/31 07:55:05;;;;;;;4.15;1.98;;;22.10;65.20;;;;;;5115797;27;20216;-57
2023/07/31 07:57:51;;;;;;;4.00;1.88;;;22.20;65.30;;;;;;5113884;27;20197;-56
2023/07/31 08:00:18;;;;;;;29.23;19.20;;;22.20;65.30;;;;;;5106301;27;20644;-57
2023/07/31 08:02:48;;;;;;;10.05;5.82;;;22.20;65.20;;;;;;5108601;28;20563;-55
2023/07/31 08:05:17;;;;;;;7.50;3.45;;;22.20;65.20;;;;;;5111758;27;20235;-57
2023/07/31 08:07:44;;;;;;;5.13;2.67;;;22.30;65.30;;;;;;5109852;27;20276;-57
2023/07/31 08:10:12;;;;;;;4.53;2.40;;;22.30;65.30;;;;;;5110736;27;20209;-57
2023/07/31 08:12:40;;;;;;;4.35;2.30;;;22.20;65.20;;;;;;5109335;27;20239;-57
2023/07/31 08:15:08;;;;;;;5.32;2.17;;;22.30;65.30;;;;;;5110868;27;20216;-57
2023/07/31 08:17:35;;;;;;;11.90;2.20;;;22.30;65.30;;;;;;5113979;27;20275;-56
2023/07/31 08:20:02;;;;;;;11.77;1.70;;;22.30;65.30;;;;;;5118134;27;20321;-57
2023/07/31 08:22:29;;;;;;;7.18;1.98;;;22.30;65.30;;;;;;5111276;27;20197;-59
2023/07/31 08:24:57;;;;;;;7.15;4.07;;;22.30;65.30;;;;;;5110415;27;20213;-59
2023/07/31 08:27:25;;;;;;;4.90;3.25;;;22.30;65.30;;;;;;5111574;27;20247;-63
2023/07/31 08:29:53;;;;;;;3.78;2.15;;;22.30;65.20;;;;;;5110713;27;20217;-65
2023/07/31 08:32:20;;;;;;;6.15;2.10;;;22.30;65.30;;;;;;5115464;27;20706;-63
2023/07/31 08:34:47;;;;;;;4.65;2.25;;;22.30;65.30;;;;;;5106485;28;20203;-63
2023/07/31 08:37:17;;;;;;;4.13;2.08;;;22.40;65.40;;;;;;5109788;27;20225;-63
2023/07/31 08:39:44;;;;;;;4.07;1.90;;;22.40;65.30;;;;;;5111135;28;20278;-60
2023/07/31 08:42:11;;;;;;;4.47;2.00;;;22.40;65.30;;;;;;5112039;27;20371;-62
2023/07/31 08:44:43;;;;;;;4.47;2.13;;;22.40;65.20;;;;;;5110699;28;20246;-57
2023/07/31 08:47:11;;;;;;;5.10;2.13;;;22.40;65.20;;;;;;5108517;28;20209;-59
2023/07/31 08:49:40;;;;;;;2.78;1.83;;;22.40;65.30;;;;;;5104277;27;20284;-59
2023/07/31 08:52:08;;;;;;;6.90;2.00;;;22.50;65.30;;;;;;5115497;27;20195;-55
2023/07/31 08:54:39;;;;;;;2.50;1.55;;;22.50;65.30;;;;;;5101103;28;20221;-54
2023/07/31 08:57:10;;;;;;;3.50;1.80;;;22.50;65.20;;;;;;5099396;27;20259;-54
2023/07/31 08:59:37;;;;;;;3.45;1.80;;;22.50;65.20;;;;;;5107110;28;20284;-52
2023/07/31 09:02:08;;;;;;;3.55;1.90;;;22.50;65.10;;;;;;5106672;27;20270;-56
2023/07/31 09:04:40;;;;;;;6.05;2.28;;;22.40;65.90;;;;;;5109158;27;20222;-55
2023/07/31 09:07:09;;;;;;;1.90;1.38;;;22.40;65.20;;;;;;5118309;27;20284;-57
2023/07/31 09:09:36;;;;;;;4.93;2.03;;;22.50;65.30;;;;;;5103971;28;20667;-55
2023/07/31 09:12:07;;;;;;;2.80;1.92;;;22.50;65.30;;;;;;5108891;27;20269;-49
2023/07/31 09:14:35;;;;;;;3.35;2.00;;;22.50;65.30;;;;;;5113281;27;20622;-56
2023/07/31 09:17:08;;;;;;;3.50;1.80;;;22.50;65.20;;;;;;5103188;27;20213;-55
2023/07/31 09:19:38;;;;;;;2.30;1.70;;;22.50;65.30;;;;;;5109059;28;20217;-55
2023/07/31 09:22:07;;;;;;;3.83;1.88;;;22.50;65.20;;;;;;5102351;27;20232;-55
2023/07/31 09:24:35;;;;;;;7.30;2.30;;;22.50;65.20;;;;;;5100767;28;20545;-54
2023/07/31 09:27:06;;;;;;;3.45;2.20;;;22.50;65.20;;;;;;5031450;27;21107;-55
2023/07/31 09:29:34;;;;;;;7.60;2.10;;;22.50;65.20;;;;;;4890147;27;20189;-52
2023/07/31 09:32:02;;;;;;;3.78;2.05;;;22.60;65.30;;;;;;4882929;27;20228;-52
2023/07/31 09:34:39;;;;;;;4.05;2.20;;;22.50;65.20;;;;;;4910294;27;20197;-52
2023/07/31 09:37:07;;;;;;;6.53;2.03;;;22.50;65.20;;;;;;4868957;27;20769;-56
2023/07/31 09:39:58;;;;;;;2.72;1.88;;;22.50;65.20;;;;;;4908331;27;20753;-54
2023/07/31 09:42:28;;;;;;;4.38;2.03;;;22.60;65.30;;;;;;4881246;27;20359;-56
2023/07/31 09:45:07;;;;;;;7.30;2.30;;;22.60;65.30;;;;;;4872611;27;20881;-56
2023/07/31 09:47:35;;;;;;;3.50;2.20;;;22.60;65.30;;;;;;4873348;27;20306;-52
2023/07/31 09:50:12;;;;;;;3.05;2.03;;;22.60;65.20;;;;;;4893750;27;20527;-56
2023/07/31 09:52:40;;;;;;;3.38;1.88;;;22.60;65.20;;;;;;4870712;27;20187;-57
2023/07/31 09:55:15;;;;;;;3.17;2.10;;;22.60;65.10;;;;;;4868271;27;20694;-54
2023/07/31 09:57:53;;;;;;;2.22;1.90;;;22.60;65.10;;;;;;4864214;28;20744;-55
2023/07/31 10:00:24;;;;;;;2.72;1.83;;;22.60;65.20;;;;;;4865919;27;20402;-54
2023/07/31 10:03:07;;;;;;;4.57;2.08;;;22.70;65.30;;;;;;4859552;28;21105;-58
2023/07/31 10:05:38;;;;;;;2.50;1.75;;;22.70;65.30;;;;;;4859877;27;20796;-56
2023/07/31 10:14:48;;;;;;;2.97;1.98;;;22.70;65.30;;;;;;4782252;28;20901;-55
2023/07/31 10:17:22;;;;;;;11.32;6.30;;;22.70;65.20;;;;;;4824561;28;21531;-57
2023/07/31 10:26:12;;;;;;;19.92;15.18;;;22.70;65.00;;;;;;4794633;28;20311;-54
2023/07/31 10:28:41;;;;;;;12.68;11.32;;;22.60;64.80;;;;;;4822465;28;20907;-55
2023/07/31 10:31:09;;;;;;;16.10;14.10;;;22.70;65.00;;;;;;4819881;28;21346;-54
2023/07/31 10:33:37;;;;;;;25.75;22.80;;;22.60;64.70;;;;;;4822006;28;20202;-53
2023/07/31 10:36:20;;;;;;;20.55;18.15;;;22.70;64.70;;;;;;4819452;28;20223;-56
2023/07/31 10:38:49;;;;;;;17.35;14.30;;;22.60;64.50;;;;;;4820824;28;20668;-58
2023/07/31 10:41:22;;;;;;;14.10;12.10;;;22.70;64.70;;;;;;4815381;28;21078;-55
2023/07/31 10:46:30;;;;;;;47.45;42.72;;;22.60;64.60;;;;;;4801549;28;20234;-57
2023/07/31 10:49:13;;;;;;;31.25;27.67;;;22.70;64.60;;;;;;4820163;28;21210;-57
2023/07/31 10:51:43;;;;;;;23.92;21.42;;;22.70;64.60;;;;;;4818426;28;20783;-58
2023/07/31 10:54:19;;;;;;;20.40;18.38;;;22.60;64.60;;;;;;4814283;28;20214;-58
2023/07/31 11:03:04;;;;;;;17.02;13.60;;;22.70;64.80;;;;;;4774948;28;20943;-57
2023/07/31 11:06:13;;;;;;;16.52;11.90;;;22.70;64.80;;;;;;4798994;28;20191;-57
2023/07/31 11:08:44;;;;;;;15.82;10.80;;;22.60;64.80;;;;;;4788312;28;20622;-57
2023/07/31 11:11:13;;;;;;;11.07;9.98;;;22.60;64.80;;;;;;4800305;28;20726;-57
2023/07/31 11:13:46;;;;;;;10.98;9.88;;;22.60;64.80;;;;;;4799571;28;21284;-57
2023/07/31 11:16:44;;;;;;;10.02;8.40;;;22.60;64.80;;;;;;4800608;28;21272;-58
2023/07/31 11:19:11;;;;;;;9.52;8.10;;;22.60;64.90;;;;;;4793932;28;20211;-58
2023/07/31 11:21:38;;;;;;;8.55;7.07;;;22.60;64.90;;;;;;4799049;28;20243;-57
2023/07/31 11:24:14;;;;;;;7.90;6.75;;;22.60;64.90;;;;;;4798857;28;20191;-57
2023/07/31 11:26:52;;;;;;;10.73;7.47;;;22.60;65.00;;;;;;4800920;28;21029;-56
2023/07/31 11:29:21;;;;;;;7.60;6.90;;;22.60;65.00;;;;;;4800538;28;20196;-55
2023/07/31 11:31:52;;;;;;;7.85;6.35;;;22.60;65.10;;;;;;4799098;28;20516;-58
2023/07/31 11:34:22;;;;;;;7.80;6.05;;;22.60;65.00;;;;;;4799706;28;21448;-57
2023/07/31 11:36:55;;;;;;;7.43;5.82;;;22.60;65.10;;;;;;4799442;28;21227;-56
2023/07/31 11:39:23;;;;;;;8.70;5.72;;;22.50;65.10;;;;;;4822927;28;20197;-57
2023/07/31 11:41:50;;;;;;;9.80;6.07;;;22.50;65.10;;;;;;4869706;27;20221;-55
2023/07/31 11:44:18;;;;;;;5.85;4.93;;;22.50;65.10;;;;;;4871334;27;20755;-57
2023/07/31 11:46:48;;;;;;;4.93;4.43;;;22.50;65.10;;;;;;4870271;27;20769;-55
2023/07/31 11:54:49;;;;;;;5.15;4.32;;;22.50;65.50;;;;;;4830909;28;20803;-58
2023/07/31 11:57:18;;;;;;;6.38;3.90;;;22.60;65.60;;;;;;4839153;28;20214;-57
2023/07/31 11:59:46;;;;;;;4.82;3.53;;;22.50;65.80;;;;;;4849764;28;20308;-57
2023/07/31 12:02:21;;;;;;;4.50;3.25;;;22.50;65.60;;;;;;4842686;28;20782;-60
2023/07/31 12:04:50;;;;;;;3.97;3.50;;;22.60;65.90;;;;;;4838882;28;21100;-55
2023/07/31 12:07:18;;;;;;;7.60;4.05;;;22.60;65.90;;;;;;4833053;28;20698;-64
2023/07/31 12:22:21;;;;;;;3.10;2.80;;;22.70;66.20;;;;;;4620119;29;20233;-64
2023/07/31 12:25:03;;;;;;;3.45;2.88;;;22.70;66.20;;;;;;4991146;28;20230;-69
2023/07/31 12:28:34;;;;;;;5.25;3.00;;;22.70;66.30;;;;;;4985144;28;20290;-67
2023/07/31 12:31:05;;;;;;;3.75;2.83;;;22.70;66.40;;;;;;4989335;28;20209;-67
2023/07/31 12:33:41;;;;;;;5.28;2.47;;;22.70;66.40;;;;;;5014890;28;20315;-65
2023/07/31 12:36:12;;;;;;;2.83;2.33;;;22.70;66.30;;;;;;5025745;28;20860;-68
2023/07/31 12:38:42;;;;;;;3.42;2.50;;;22.60;66.20;;;;;;5109159;27;20186;-70
2023/07/31 12:41:12;;;;;;;4.22;2.70;;;22.70;66.40;;;;;;5101718;28;20223;-68
2023/07/31 12:43:47;;;;;;;4.68;2.78;;;22.70;66.40;;;;;;5099439;28;20209;-61
2023/07/31 12:46:16;;;;;;;3.58;2.20;;;22.70;66.50;;;;;;5103263;27;20193;-59
2023/07/31 12:48:44;;;;;;;2.58;1.88;;;22.70;66.40;;;;;;5111958;27;20202;-59
2023/07/31 12:51:11;;;;;;;6.05;2.72;;;22.70;66.50;;;;;;5105701;27;20185;-60
2023/07/31 12:53:41;;;;;;;2.72;1.67;;;22.70;66.40;;;;;;5108505;27;20217;-59
2023/07/31 12:56:08;;;;;;;3.42;2.38;;;22.70;66.50;;;;;;5103024;27;20200;-59
2023/07/31 12:58:39;;;;;;;3.45;2.22;;;22.70;66.40;;;;;;5098617;27;20239;-60
2023/07/31 13:01:07;;;;;;;3.22;1.95;;;22.70;66.50;;;;;;5098196;27;20202;-61
2023/07/31 13:03:38;;;;;;;2.13;1.90;;;22.70;66.60;;;;;;5095431;27;20224;-59
2023/07/31 13:06:05;;;;;;;3.05;1.63;;;22.70;66.50;;;;;;5104437;27;20610;-61
2023/07/31 13:08:35;;;;;;;4.85;1.90;;;22.70;66.50;;;;;;5106573;27;20225;-59
2023/07/31 13:11:03;;;;;;;2.65;1.75;;;22.80;66.70;;;;;;5109094;27;20647;-60
2023/07/31 13:13:31;;;;;;;4.05;1.73;;;22.70;66.50;;;;;;5109497;27;20221;-64
2023/07/31 13:15:58;;;;;;;2.03;1.60;;;22.80;66.60;;;;;;5112817;27;20197;-61
2023/07/31 13:18:28;;;;;;;2.80;1.77;;;22.80;66.60;;;;;;5104214;28;20221;-61
2023/07/31 13:21:06;;;;;;;2.28;1.75;;;22.80;66.60;;;;;;5098251;27;20904;-62
2023/07/31 13:23:36;;;;;;;1.83;1.38;;;22.80;66.70;;;;;;5102559;27;20225;-60
2023/07/31 13:26:03;;;;;;;2.67;1.90;;;22.80;66.60;;;;;;5100857;28;20266;-61
2023/07/31 13:28:33;;;;;;;7.13;1.60;;;22.80;66.60;;;;;;5097838;27;20245;-64
2023/07/31 13:31:01;;;;;;;2.97;1.55;;;22.80;66.60;;;;;;5098542;27;20197;-66
2023/07/31 13:33:27;;;;;;;1.75;1.40;;;22.80;66.70;;;;;;5060283;28;20217;-66
2023/07/31 13:35:56;;;;;;;7.00;1.90;;;22.80;66.60;;;;;;5096096;27;20201;-67
2023/07/31 13:38:23;;;;;;;2.40;1.60;;;22.80;66.70;;;;;;5107687;27;20217;-65
2023/07/31 13:40:50;;;;;;;4.38;1.60;;;22.80;66.70;;;;;;5101174;27;20289;-64
2023/07/31 13:43:17;;;;;;;2.03;1.60;;;22.80;66.60;;;;;;5098150;27;20222;-61
2023/07/31 13:45:43;;;;;;;3.60;1.73;;;22.80;66.70;;;;;;5095495;28;20576;-63
2023/07/31 13:48:10;;;;;;;2.53;1.55;;;22.80;66.70;;;;;;5096777;27;20307;-62